Time;durP1;ratioP1;P1;durP2;ratioP2;P2;SDS_P1;SDS_P2;PMS_P1;PMS_P2;Temp;Humidity;BMP_temperature;BMP_pressure;BME280_temperature;BME280_humidity;BME280_pressure;Samples;Min_cycle;Max_cycle;Signal;HPM_P1;HPM_P2
2022/07/07 00:01:54;;;;;;;9.75;5.65;;;;;;;21.70;52.30;99179.34;5053840;28;20025;-89
2022/07/07 00:04:20;;;;;;;6.07;5.57;;;;;;;21.76;52.63;99187.47;5053766;28;20052;-89
2022/07/07 00:06:45;;;;;;;6.13;5.53;;;;;;;21.78;52.11;99190.69;5053861;28;20025;-88
2022/07/07 00:09:11;;;;;;;6.93;6.15;;;;;;;21.80;52.33;99182.53;5053725;28;20025;-89
2022/07/07 00:11:36;;;;;;;6.00;5.50;;;;;;;21.82;52.26;99180.91;5053826;28;20458;-89
2022/07/07 00:14:02;;;;;;;7.57;5.95;;;;;;;21.85;51.73;99184.97;5053543;28;20027;-88
2022/07/07 00:16:28;;;;;;;6.50;5.90;;;;;;;21.79;51.51;99156.13;5048167;28;20148;-90
2022/07/07 00:18:55;;;;;;;5.75;5.25;;;;;;;21.97;51.46;99180.78;5051731;28;20029;-89
2022/07/07 00:21:20;;;;;;;5.70;5.20;;;;;;;21.86;51.53;99163.81;5053560;28;20025;-89
2022/07/07 00:23:46;;;;;;;6.78;5.25;;;;;;;21.86;51.26;99167.44;5053458;28;20557;-89
2022/07/07 00:26:11;;;;;;;6.95;5.38;;;;;;;21.77;51.36;99155.72;5053497;28;20028;-89
2022/07/07 00:28:37;;;;;;;7.10;6.15;;;;;;;21.77;51.67;99166.31;5049854;28;20026;-89
2022/07/07 00:31:02;;;;;;;7.57;5.78;;;;;;;21.60;52.07;99168.88;5049880;28;20024;-90
2022/07/07 00:33:28;;;;;;;8.20;5.95;;;;;;;21.55;52.36;99177.81;5053227;28;20322;-89
2022/07/07 00:35:54;;;;;;;7.35;6.40;;;;;;;21.41;52.95;99179.53;5052909;28;20389;-89
2022/07/07 00:38:19;;;;;;;6.63;6.13;;;;;;;21.10;53.38;99147.25;5053144;28;20029;-89
2022/07/07 00:40:52;;;;;;;7.88;6.32;;;;;;;21.08;54.07;99167.56;5053123;28;20090;-89
2022/07/07 00:43:18;;;;;;;7.75;6.45;;;;;;;20.90;55.02;99168.47;5053678;28;20036;-90
2022/07/07 00:45:48;;;;;;;6.45;5.95;;;;;;;20.74;55.42;99176.59;5053091;28;20021;-89
2022/07/07 00:48:14;;;;;;;7.70;7.00;;;;;;;20.50;56.72;99152.75;5052104;28;20090;-89
2022/07/07 00:50:42;;;;;;;8.20;6.95;;;;;;;20.51;56.81;99179.94;5052958;28;20082;-90
2022/07/07 00:53:07;;;;;;;8.32;7.57;;;;;;;20.46;57.08;99167.78;5053286;28;20550;-88
2022/07/07 00:55:33;;;;;;;7.65;6.95;;;;;;;20.50;57.31;99167.75;5053891;28;20064;-90
2022/07/07 00:57:58;;;;;;;8.50;7.15;;;;;;;20.53;57.48;99172.63;5052208;28;20120;-91
2022/07/07 01:00:24;;;;;;;15.43;7.97;;;;;;;20.55;57.48;99173.03;5052446;28;20036;-89
2022/07/07 01:02:50;;;;;;;7.85;7.15;;;;;;;20.53;57.37;99175.47;5052800;28;20020;-89
2022/07/07 01:05:16;;;;;;;8.18;7.38;;;;;;;20.57;57.42;99166.91;5053796;28;20411;-89
2022/07/07 01:07:43;;;;;;;9.75;6.70;;;;;;;20.56;57.47;99168.16;5052515;28;20025;-89
2022/07/07 01:10:09;;;;;;;10.80;7.28;;;;;;;20.57;57.48;99172.59;5054183;28;20097;-89
2022/07/07 01:12:39;;;;;;;7.63;6.82;;;;;;;20.65;57.10;99168.53;5054715;28;20471;-89
2022/07/07 01:15:07;;;;;;;7.50;6.80;;;;;;;20.71;56.52;99160.38;5061269;28;20025;-90
2022/07/07 01:17:33;;;;;;;9.00;6.82;;;;;;;21.03;56.00;99176.53;5064663;28;20118;-89
2022/07/07 01:19:58;;;;;;;7.25;6.65;;;;;;;20.71;56.06;99135.63;5067269;28;20029;-89
2022/07/07 01:22:28;;;;;;;7.65;7.03;;;;;;;20.89;56.01;99166.03;5068343;28;20476;-89
2022/07/07 01:24:54;;;;;;;7.78;6.60;;;;;;;20.76;56.13;99155.09;5067467;28;20051;-89
2022/07/07 01:27:20;;;;;;;11.43;6.53;;;;;;;20.81;56.37;99173.78;5055738;28;20029;-89
2022/07/07 01:29:49;;;;;;;11.25;7.03;;;;;;;20.70;56.62;99164.44;5052160;28;20021;-88
2022/07/07 01:32:15;;;;;;;13.25;7.72;;;;;;;20.66;57.12;99169.34;5051847;28;20506;-90
2022/07/07 01:34:46;;;;;;;8.20;7.50;;;;;;;20.46;57.57;99179.16;5051774;28;20048;-89
2022/07/07 01:37:12;;;;;;;9.05;8.20;;;;;;;20.27;58.10;99168.22;5051795;28;20466;-89
2022/07/07 01:39:39;;;;;;;8.25;7.13;;;;;;;20.27;58.68;99183.25;5051807;28;20032;-90
2022/07/07 01:42:05;;;;;;;9.27;6.88;;;;;;;20.07;59.45;99180.00;5051797;28;20025;-89
2022/07/07 01:44:36;;;;;;;11.20;7.00;;;;;;;19.52;60.40;99138.66;5052863;28;20025;-90
2022/07/07 01:47:02;;;;;;;9.52;8.13;;;;;;;19.58;61.32;99179.59;5051097;28;20021;-88
2022/07/07 01:49:29;;;;;;;17.60;9.38;;;;;;;19.58;61.51;99176.75;5051554;28;20029;-89
2022/07/07 01:51:55;;;;;;;15.55;7.63;;;;;;;19.56;62.01;99177.16;5051493;28;20041;-89
2022/07/07 01:54:20;;;;;;;8.45;7.55;;;;;;;19.44;62.47;99172.69;5051921;28;20036;-89
2022/07/07 01:56:46;;;;;;;7.93;7.13;;;;;;;19.42;62.51;99163.75;5052480;28;20029;-89
2022/07/07 01:59:13;;;;;;;8.43;7.18;;;;;;;19.53;62.80;99179.97;5051507;28;20056;-89
2022/07/07 02:01:39;;;;;;;7.72;7.03;;;;;;;19.53;62.75;99182.81;5051260;28;20415;-90
2022/07/07 02:04:04;;;;;;;8.00;7.30;;;;;;;19.67;62.68;99170.69;5051331;28;20025;-90
2022/07/07 02:06:31;;;;;;;12.27;7.28;;;;;;;19.82;62.01;99175.13;5051255;28;20041;-89
2022/07/07 02:08:56;;;;;;;7.25;6.53;;;;;;;20.22;60.42;99169.47;5051294;28;20029;-89
2022/07/07 02:11:22;;;;;;;12.88;6.90;;;;;;;20.34;59.75;99163.34;5050482;28;20052;-89
2022/07/07 02:13:50;;;;;;;13.57;6.20;;;;;;;20.55;59.52;99164.50;5051357;28;20029;-89
2022/07/07 02:16:25;;;;;;;6.80;6.05;;;;;;;20.68;59.07;99161.22;5050817;28;20021;-89
2022/07/07 02:18:54;;;;;;;23.42;6.43;;;;;;;20.62;58.28;99136.06;5051243;28;20029;-89
2022/07/07 02:21:21;;;;;;;10.05;5.97;;;;;;;20.87;58.00;99177.78;5051083;28;20174;-89
2022/07/07 02:23:49;;;;;;;10.05;6.05;;;;;;;20.85;58.09;99182.28;5051155;28;20025;-89
2022/07/07 02:26:15;;;;;;;11.10;6.25;;;;;;;20.71;58.22;99171.75;5051079;28;20100;-89
2022/07/07 02:28:41;;;;;;;6.32;5.72;;;;;;;20.78;58.00;99180.25;5047244;28;20025;-89
2022/07/07 02:31:07;;;;;;;6.80;5.95;;;;;;;20.87;57.77;99183.47;5050960;28;20025;-89
2022/07/07 02:33:33;;;;;;;8.07;6.18;;;;;;;20.83;57.27;99179.84;5052049;28;20032;-89
2022/07/07 02:35:59;;;;;;;7.47;5.80;;;;;;;20.93;57.14;99188.75;5051086;28;20049;-89
2022/07/07 02:38:25;;;;;;;8.82;6.75;;;;;;;20.81;56.93;99182.31;5050983;28;20029;-89
2022/07/07 02:40:51;;;;;;;9.88;6.35;;;;;;;20.92;57.16;99179.41;5050931;28;20043;-89
2022/07/07 02:43:18;;;;;;;7.38;6.68;;;;;;;20.89;56.66;99180.22;5051967;28;20036;-88
2022/07/07 02:45:46;;;;;;;7.03;6.20;;;;;;;20.96;56.55;99182.22;5050849;28;20021;-90
2022/07/07 02:48:13;;;;;;;6.25;5.75;;;;;;;20.98;56.29;99194.00;5051103;28;20108;-89
2022/07/07 02:50:39;;;;;;;8.60;6.18;;;;;;;20.71;56.23;99154.69;5050922;28;20055;-89
2022/07/07 02:53:07;;;;;;;11.50;6.15;;;;;;;20.88;55.86;99179.44;5050892;28;20024;-89
2022/07/07 02:55:32;;;;;;;13.38;7.38;;;;;;;20.89;55.84;99183.06;5050852;28;20032;-90
2022/07/07 02:57:59;;;;;;;13.27;7.25;;;;;;;20.89;55.76;99171.72;5050766;28;20029;-89
2022/07/07 03:00:25;;;;;;;6.68;6.07;;;;;;;20.96;55.67;99174.53;5049982;28;20040;-89
2022/07/07 03:02:54;;;;;;;20.33;6.97;;;;;;;20.92;55.63;99173.72;5050621;28;20024;-90
2022/07/07 03:05:23;;;;;;;6.97;6.30;;;;;;;20.83;55.60;99177.00;5050714;28;20055;-89
2022/07/07 03:07:49;;;;;;;33.33;6.70;;;;;;;20.72;56.02;99170.53;5051052;28;20036;-88
2022/07/07 03:10:15;;;;;;;9.00;6.60;;;;;;;20.93;56.09;99188.75;5050520;28;20116;-90
2022/07/07 03:12:41;;;;;;;12.25;6.20;;;;;;;20.90;55.75;99190.38;5050513;28;20483;-91
2022/07/07 03:15:08;;;;;;;6.72;6.13;;;;;;;20.87;55.59;99191.22;5049725;28;20474;-90
2022/07/07 03:17:35;;;;;;;7.90;7.20;;;;;;;20.75;55.82;99184.72;5050754;28;20087;-89
2022/07/07 03:20:01;;;;;;;7.72;7.03;;;;;;;20.87;55.74;99186.31;5050771;28;20036;-89
2022/07/07 03:22:27;;;;;;;9.50;6.85;;;;;;;20.83;56.14;99176.22;5053025;28;20047;-89
2022/07/07 03:24:52;;;;;;;8.48;7.25;;;;;;;20.80;56.00;99174.97;5054307;28;20063;-88
2022/07/07 03:27:18;;;;;;;7.18;6.47;;;;;;;20.76;56.02;99165.66;5054259;28;20052;-90
2022/07/07 03:29:43;;;;;;;8.23;6.28;;;;;;;20.88;55.98;99170.91;5053722;28;20029;-90
2022/07/07 03:32:09;;;;;;;7.00;6.32;;;;;;;20.83;55.74;99151.44;5054193;28;20110;-89
2022/07/07 03:34:36;;;;;;;6.97;6.38;;;;;;;20.90;55.72;99167.63;5054129;28;20036;-88
2022/07/07 03:37:01;;;;;;;7.00;6.40;;;;;;;20.78;56.00;99151.84;5054082;28;20061;-90
2022/07/07 03:39:27;;;;;;;7.30;6.70;;;;;;;20.86;55.89;99156.28;5054254;28;20091;-90
2022/07/07 03:41:52;;;;;;;12.38;6.90;;;;;;;20.90;56.13;99165.63;5054303;28;20060;-91
2022/07/07 03:44:18;;;;;;;8.73;6.80;;;;;;;21.01;55.88;99173.28;5053813;28;20170;-90
2022/07/07 03:46:44;;;;;;;7.18;6.53;;;;;;;21.05;55.58;99179.75;5053844;28;20021;-91
2022/07/07 03:49:10;;;;;;;9.35;7.25;;;;;;;21.15;55.67;99176.06;5055148;28;20028;-90
2022/07/07 03:51:36;;;;;;;9.32;6.45;;;;;;;21.21;55.74;99182.13;5054090;28;20103;-90
2022/07/07 03:54:02;;;;;;;6.85;6.15;;;;;;;21.15;55.77;99173.22;5054309;28;20024;-91
2022/07/07 03:56:27;;;;;;;8.30;6.85;;;;;;;21.22;55.67;99178.03;5054280;28;20551;-90
2022/07/07 03:58:53;;;;;;;12.80;7.65;;;;;;;21.26;55.90;99178.03;5053690;28;20028;-91
2022/07/07 04:01:18;;;;;;;8.10;6.55;;;;;;;21.26;56.04;99166.66;5053950;28;20060;-89
2022/07/07 04:03:44;;;;;;;7.05;6.30;;;;;;;21.24;56.31;99180.47;5054278;28;20035;-90
2022/07/07 04:06:09;;;;;;;8.30;6.10;;;;;;;21.26;56.23;99178.03;5054042;28;20091;-91
2022/07/07 04:08:35;;;;;;;8.55;6.13;;;;;;;21.20;56.02;99156.94;5054084;28;20498;-90
2022/07/07 04:11:00;;;;;;;11.20;7.15;;;;;;;21.46;56.04;99181.94;5054152;28;20067;-90
2022/07/07 04:13:26;;;;;;;7.13;6.43;;;;;;;21.41;56.04;99176.69;5053638;28;20025;-89
2022/07/07 04:15:51;;;;;;;7.43;6.65;;;;;;;21.44;56.16;99192.94;5053773;28;20049;-89
2022/07/07 04:18:17;;;;;;;11.07;7.05;;;;;;;21.51;56.45;99194.91;5053755;28;20016;-90
2022/07/07 04:20:43;;;;;;;7.25;6.60;;;;;;;21.48;56.50;99197.78;5053694;28;20025;-90
2022/07/07 04:23:08;;;;;;;6.63;6.03;;;;;;;21.41;56.89;99192.94;5047403;28;20021;-89
2022/07/07 04:25:34;;;;;;;7.25;6.55;;;;;;;21.44;56.50;99190.09;5053327;28;20064;-90
2022/07/07 04:27:59;;;;;;;7.50;6.78;;;;;;;21.68;56.14;99207.44;5052696;28;20031;-90
2022/07/07 04:30:25;;;;;;;8.20;6.85;;;;;;;21.70;55.91;99199.28;5053144;28;20033;-88
2022/07/07 04:32:50;;;;;;;17.45;7.55;;;;;;;21.84;56.04;99215.44;5051787;28;20098;-88
2022/07/07 04:35:16;;;;;;;12.27;6.70;;;;;;;21.90;56.00;99198.72;5052043;28;20199;-88
2022/07/07 04:37:41;;;;;;;9.50;6.30;;;;;;;22.00;55.42;99192.13;5052878;28;20490;-89
2022/07/07 04:40:07;;;;;;;7.18;5.50;;;;;;;22.21;54.81;99218.81;5052604;28;20033;-88
2022/07/07 04:42:33;;;;;;;9.85;6.28;;;;;;;22.23;54.78;99216.34;5052421;28;20025;-88
2022/07/07 04:44:59;;;;;;;12.73;5.82;;;;;;;22.32;54.90;99213.00;5052520;28;20388;-88
2022/07/07 04:47:24;;;;;;;8.80;5.95;;;;;;;22.39;54.45;99215.78;5040640;28;20028;-88
2022/07/07 04:49:53;;;;;;;6.28;5.38;;;;;;;22.56;54.21;99214.00;5032639;28;20057;-88
2022/07/07 04:52:19;;;;;;;8.25;5.82;;;;;;;22.63;53.56;99196.03;5042655;28;20032;-89
2022/07/07 04:54:44;;;;;;;7.95;6.25;;;;;;;22.66;53.69;99192.31;5052404;28;20514;-90
2022/07/07 04:57:10;;;;;;;6.93;5.55;;;;;;;22.76;53.16;99213.38;5052413;28;20135;-88
2022/07/07 04:59:35;;;;;;;5.60;5.10;;;;;;;22.76;52.87;99198.31;5040036;28;20124;-87
2022/07/07 05:02:01;;;;;;;8.80;6.05;;;;;;;22.88;52.64;99208.34;5045063;28;20025;-88
2022/07/07 05:04:28;;;;;;;8.48;5.30;;;;;;;22.71;53.10;99203.25;5052054;28;20064;-88
2022/07/07 05:06:53;;;;;;;10.35;6.93;;;;;;;22.65;53.67;99184.19;5037313;28;20025;-88
2022/07/07 05:09:19;;;;;;;6.07;5.47;;;;;;;22.66;53.45;99197.19;5047385;28;20043;-89
2022/07/07 05:11:44;;;;;;;10.77;5.43;;;;;;;22.60;53.61;99202.56;5048196;28;20017;-88
2022/07/07 05:14:10;;;;;;;11.93;4.85;;;;;;;22.41;53.84;99195.41;5048626;28;20108;-88
2022/07/07 05:16:35;;;;;;;15.30;5.65;;;;;;;22.39;54.62;99212.94;5051903;28;20044;-89
2022/07/07 05:19:01;;;;;;;5.60;5.05;;;;;;;22.33;54.81;99208.13;5045884;28;20496;-88
2022/07/07 05:21:26;;;;;;;7.93;4.72;;;;;;;22.35;54.71;99205.66;5043679;28;20090;-89
2022/07/07 05:23:52;;;;;;;10.95;5.05;;;;;;;22.28;52.50;99203.69;5052723;28;20028;-89
2022/07/07 05:26:17;;;;;;;22.40;5.35;;;;;;;22.36;51.93;99210.91;5051546;28;20028;-88
2022/07/07 05:28:43;;;;;;;23.48;4.57;;;;;;;22.26;51.64;99206.94;5051121;28;20024;-90
2022/07/07 05:31:14;;;;;;;8.80;4.25;;;;;;;22.47;52.04;99212.84;5052041;28;20025;-91
2022/07/07 05:33:40;;;;;;;7.00;4.30;;;;;;;22.61;50.90;99223.31;5052217;28;20525;-91
2022/07/07 05:36:06;;;;;;;12.25;3.58;;;;;;;22.56;50.43;99205.47;5051712;28;20595;-91
2022/07/07 05:38:33;;;;;;;9.55;3.33;;;;;;;22.61;50.53;99207.03;5051822;28;20025;-89
2022/07/07 05:40:58;;;;;;;10.13;3.95;;;;;;;22.74;50.50;99227.25;5052303;28;20029;-91
2022/07/07 05:43:24;;;;;;;4.85;3.13;;;;;;;22.72;50.34;99218.31;5051774;28;20025;-91
2022/07/07 05:45:50;;;;;;;15.45;3.88;;;;;;;22.64;50.21;99217.59;5053045;28;20032;-89
2022/07/07 05:48:15;;;;;;;10.65;4.07;;;;;;;22.60;50.94;99188.31;5051697;28;20047;-89
2022/07/07 05:50:41;;;;;;;4.00;2.75;;;;;;;22.60;50.05;99185.47;5051658;28;20029;-90
2022/07/07 05:53:06;;;;;;;4.43;3.47;;;;;;;22.88;50.33;99219.75;5047153;28;20021;-91
2022/07/07 05:55:32;;;;;;;10.23;3.95;;;;;;;23.00;49.14;99219.19;5051666;28;20017;-90
2022/07/07 05:57:57;;;;;;;3.13;2.83;;;;;;;23.07;48.96;99232.56;5048141;28;20014;-89
2022/07/07 06:00:24;;;;;;;4.57;3.40;;;;;;;23.19;48.86;99223.44;5048264;28;20088;-90
2022/07/07 06:02:50;;;;;;;7.55;3.97;;;;;;;23.27;49.03;99213.59;5048333;28;20029;-90
2022/07/07 06:05:16;;;;;;;13.10;2.80;;;;;;;23.35;47.46;99216.31;5051512;28;20027;-90
2022/07/07 06:07:42;;;;;;;7.63;2.83;;;;;;;23.27;47.85;99216.44;5050703;28;20013;-91
2022/07/07 06:10:10;;;;;;;4.32;2.25;;;;;;;23.10;48.02;99201.16;5031857;28;20017;-90
2022/07/07 06:12:36;;;;;;;5.18;2.83;;;;;;;23.24;47.66;99225.81;5031592;28;20021;-90
2022/07/07 06:15:01;;;;;;;8.95;3.40;;;;;;;23.45;47.51;99235.34;5031679;28;20060;-90
2022/07/07 06:17:27;;;;;;;7.80;4.18;;;;;;;23.79;47.24;99236.50;5031740;28;20029;-90
2022/07/07 06:19:52;;;;;;;9.93;3.67;;;;;;;24.05;45.87;99242.63;5050135;28;20029;-92
2022/07/07 06:22:18;;;;;;;3.55;2.97;;;;;;;24.10;45.45;99245.81;5051226;28;20035;-89
2022/07/07 06:24:43;;;;;;;4.40;2.42;;;;;;;24.09;45.44;99241.34;5051466;28;20487;-90
2022/07/07 06:27:09;;;;;;;5.20;3.13;;;;;;;23.76;45.10;99214.50;5050004;28;20036;-90
2022/07/07 06:29:34;;;;;;;8.35;2.72;;;;;;;24.14;45.06;99233.50;5049964;28;20017;-90
2022/07/07 06:32:00;;;;;;;11.07;3.15;;;;;;;24.20;43.71;99238.28;5050947;28;20074;-91
2022/07/07 06:34:26;;;;;;;4.47;2.70;;;;;;;24.39;44.03;99231.00;5050887;28;20044;-90
2022/07/07 06:36:51;;;;;;;12.98;2.90;;;;;;;24.50;44.63;99227.97;5051256;28;20025;-90
2022/07/07 06:39:17;;;;;;;5.80;2.70;;;;;;;24.67;43.66;99233.78;5051069;28;20021;-92
2022/07/07 06:41:42;;;;;;;4.38;2.67;;;;;;;24.65;42.76;99193.38;5051653;28;20116;-91
2022/07/07 06:44:11;;;;;;;7.57;2.60;;;;;;;24.65;43.11;99219.13;5051219;28;20095;-90
2022/07/07 06:46:37;;;;;;;12.80;3.22;;;;;;;24.83;42.74;99226.56;5051252;28;20111;-90
2022/07/07 06:49:03;;;;;;;2.50;2.30;;;;;;;24.97;42.76;99217.66;5051316;28;20055;-90
2022/07/07 06:51:29;;;;;;;6.97;3.50;;;;;;;25.24;42.02;99219.59;5041266;28;20129;-90
2022/07/07 06:54:04;;;;;;;3.50;2.40;;;;;;;25.23;41.95;99210.19;5030843;28;20108;-91
2022/07/07 06:56:29;;;;;;;12.50;2.83;;;;;;;25.44;41.36;99218.72;5038763;28;20514;-88
2022/07/07 06:58:55;;;;;;;8.93;3.42;;;;;;;25.61;41.17;99220.41;5054439;28;20021;-89
2022/07/07 07:01:20;;;;;;;8.02;3.05;;;;;;;25.74;41.50;99219.72;5053778;28;20368;-90
2022/07/07 07:03:47;;;;;;;2.70;2.50;;;;;;;25.91;40.97;99221.31;5054762;28;20461;-90
2022/07/07 07:06:14;;;;;;;20.30;3.33;;;;;;;25.93;40.68;99215.94;5054566;28;20411;-87
2022/07/07 07:08:39;;;;;;;6.40;3.00;;;;;;;25.64;40.70;99222.38;5054289;28;20029;-87
2022/07/07 07:11:05;;;;;;;4.15;2.22;;;;;;;25.63;40.85;99211.34;5054048;28;20112;-87
2022/07/07 07:13:31;;;;;;;10.32;2.75;;;;;;;25.88;40.36;99207.06;5054184;28;20112;-88
2022/07/07 07:15:56;;;;;;;6.43;2.55;;;;;;;26.23;40.38;99204.59;5054152;28;20124;-88
2022/07/07 07:18:22;;;;;;;5.38;2.40;;;;;;;26.02;39.64;99211.66;5055693;28;20053;-90
2022/07/07 07:20:48;;;;;;;12.90;2.58;;;;;;;26.05;39.26;99202.16;5054390;28;20032;-87
2022/07/07 07:23:13;;;;;;;7.35;2.00;;;;;;;26.49;38.94;99216.22;5054229;28;20035;-88
2022/07/07 07:25:39;;;;;;;3.60;2.35;;;;;;;26.20;40.02;99211.22;5054214;28;20427;-89
2022/07/07 07:28:04;;;;;;;10.45;2.75;;;;;;;26.31;39.89;99208.09;5054306;28;20061;-87
2022/07/07 07:30:31;;;;;;;6.95;2.50;;;;;;;26.29;39.52;99214.25;5055038;28;20028;-85
2022/07/07 07:32:56;;;;;;;4.90;2.63;;;;;;;25.74;39.71;99196.78;5053253;28;20529;-85
2022/07/07 07:35:22;;;;;;;10.13;2.83;;;;;;;26.48;39.25;99221.13;5052793;28;20128;-85
2022/07/07 07:37:47;;;;;;;10.55;2.97;;;;;;;26.45;38.74;99216.31;5053353;28;20060;-85
2022/07/07 07:40:13;;;;;;;4.75;2.90;;;;;;;26.78;38.40;99212.53;5053488;28;20032;-87
2022/07/07 07:42:39;;;;;;;3.33;2.47;;;;;;;27.17;38.95;99230.69;5053783;28;20033;-87
2022/07/07 07:45:12;;;;;;;7.53;2.90;;;;;;;26.61;37.99;99175.31;5053341;28;20021;-86
2022/07/07 07:47:42;;;;;;;4.18;2.72;;;;;;;27.37;38.32;99226.00;5053313;28;20047;-86
2022/07/07 07:50:20;;;;;;;5.28;2.60;;;;;;;27.31;36.75;99205.69;5053376;28;20036;-88
2022/07/07 07:52:48;;;;;;;7.20;3.13;;;;;;;27.01;37.31;99194.25;5054372;28;20460;-86
2022/07/07 07:55:17;;;;;;;6.25;2.63;;;;;;;26.96;37.35;99205.50;5052734;28;20036;-86
2022/07/07 07:57:43;;;;;;;8.77;3.22;;;;;;;26.65;37.70;99183.00;5053170;28;20051;-89
2022/07/07 08:00:10;;;;;;;4.22;2.65;;;;;;;27.00;38.15;99189.00;5053400;28;20029;-89
2022/07/07 08:02:36;;;;;;;5.20;2.75;;;;;;;27.48;37.08;99209.25;5054373;28;20040;-87
2022/07/07 08:05:02;;;;;;;20.05;5.18;;;;;;;26.61;37.77;99191.72;5052971;28;20017;-87
2022/07/07 08:07:28;;;;;;;3.50;2.28;;;;;;;26.61;38.23;99203.19;5053484;28;20112;-86
2022/07/07 08:09:53;;;;;;;5.30;2.95;;;;;;;26.94;37.30;99222.38;5052065;28;20033;-87
2022/07/07 08:12:19;;;;;;;4.65;2.90;;;;;;;27.00;37.57;99224.22;5052394;28;20052;-87
2022/07/07 08:14:45;;;;;;;3.35;2.85;;;;;;;26.69;37.72;99216.06;5052513;28;20060;-86
2022/07/07 08:17:11;;;;;;;4.82;2.90;;;;;;;26.78;37.76;99201.06;5051891;28;20167;-87
2022/07/07 08:19:36;;;;;;;7.97;3.40;;;;;;;26.65;38.43;99212.47;5049141;28;20179;-87
2022/07/07 08:22:02;;;;;;;10.23;3.88;;;;;;;26.90;37.75;99208.13;5032269;28;20855;-87
2022/07/07 08:24:28;;;;;;;5.82;3.60;;;;;;;27.00;37.40;99189.78;5033825;28;20031;-88
2022/07/07 08:26:53;;;;;;;3.63;3.00;;;;;;;26.96;37.27;99209.19;5032554;28;20053;-86
2022/07/07 08:29:19;;;;;;;4.93;3.50;;;;;;;27.03;37.27;99203.25;5032484;28;20144;-87
2022/07/07 08:31:45;;;;;;;4.45;3.47;;;;;;;27.41;37.58;99200.88;5032503;28;20036;-86
2022/07/07 08:34:10;;;;;;;3.78;3.47;;;;;;;27.28;37.19;99216.03;5032157;28;20025;-87
2022/07/07 08:36:36;;;;;;;8.95;3.13;;;;;;;27.52;36.53;99204.22;5032093;28;20026;-86
2022/07/07 08:39:02;;;;;;;4.00;3.55;;;;;;;27.58;36.50;99207.38;5038844;28;20075;-85
2022/07/07 08:41:28;;;;;;;8.45;3.80;;;;;;;27.37;37.14;99206.75;5052761;28;20025;-85
2022/07/07 08:43:55;;;;;;;7.95;4.45;;;;;;;27.96;36.60;99212.28;5032303;28;20089;-87
2022/07/07 08:46:21;;;;;;;7.65;3.45;;;;;;;27.43;36.91;99195.50;5032257;28;20083;-86
2022/07/07 08:48:47;;;;;;;5.57;4.03;;;;;;;27.47;36.82;99210.53;5044920;28;20036;-86
2022/07/07 08:51:15;;;;;;;5.32;3.33;;;;;;;27.54;36.44;99195.16;5051973;28;20481;-86
2022/07/07 08:53:44;;;;;;;4.82;3.55;;;;;;;27.57;35.88;99192.19;5053252;28;20028;-86
2022/07/07 08:56:09;;;;;;;4.28;3.60;;;;;;;27.86;36.08;99199.06;5051492;28;20037;-85
2022/07/07 08:58:36;;;;;;;15.15;3.60;;;;;;;27.86;35.85;99188.38;5052699;28;20025;-85
2022/07/07 09:01:03;;;;;;;14.80;3.90;;;;;;;28.35;35.26;99194.16;5050887;28;20040;-86
2022/07/07 09:03:29;;;;;;;11.30;3.83;;;;;;;28.56;35.46;99192.59;5051331;28;20526;-86
2022/07/07 09:05:56;;;;;;;11.35;3.28;;;;;;;28.55;34.22;99191.81;5051433;28;20024;-86
2022/07/07 09:08:23;;;;;;;6.00;3.63;;;;;;;28.76;34.47;99191.47;5051302;28;20484;-86
2022/07/07 09:10:49;;;;;;;7.05;3.30;;;;;;;28.57;35.04;99176.94;5050737;28;20033;-87
2022/07/07 09:13:32;;;;;;;3.60;3.20;;;;;;;27.90;35.63;99194.00;5051287;28;20033;-86
2022/07/07 09:16:04;;;;;;;5.88;3.60;;;;;;;28.09;35.24;99195.00;5048705;28;20048;-85
2022/07/07 09:18:32;;;;;;;3.80;3.40;;;;;;;28.44;35.68;99192.16;5031700;28;20439;-88
2022/07/07 09:20:59;;;;;;;9.77;3.83;;;;;;;28.67;34.99;99177.81;5031142;28;20055;-85
2022/07/07 09:23:25;;;;;;;6.20;4.38;;;;;;;28.86;34.10;99199.72;5031027;28;20488;-86
2022/07/07 09:25:51;;;;;;;3.60;3.30;;;;;;;29.03;34.30;99184.31;5031350;28;20022;-85
2022/07/07 09:28:16;;;;;;;4.00;3.60;;;;;;;28.80;35.19;99192.13;5031384;28;20108;-86
2022/07/07 09:30:47;;;;;;;3.78;2.80;;;;;;;29.24;34.97;99185.56;5046202;28;20052;-85
2022/07/07 09:33:20;;;;;;;3.78;3.30;;;;;;;28.89;34.53;99183.59;5048847;28;20115;-86
2022/07/07 09:38:31;;;;;;;7.18;2.95;;;;;;;29.37;33.72;99171.88;5051874;28;20039;-87
2022/07/07 09:41:05;;;;;;;3.58;2.88;;;;;;;29.13;33.56;99171.59;5050348;28;20459;-87
2022/07/07 09:43:53;;;;;;;7.97;3.45;;;;;;;28.84;33.90;99166.94;5050496;28;20594;-86
2022/07/07 09:46:26;;;;;;;3.90;3.25;;;;;;;29.00;34.61;99163.84;5050669;28;20119;-86
2022/07/07 09:48:58;;;;;;;4.43;2.90;;;;;;;29.16;33.54;99159.13;5042128;28;20025;-86
2022/07/07 09:51:25;;;;;;;5.60;3.78;;;;;;;29.26;33.11;99154.22;5040841;28;20033;-87
2022/07/07 09:53:57;;;;;;;7.75;3.55;;;;;;;29.60;32.81;99157.44;5047147;28;20025;-87
2022/07/07 09:56:25;;;;;;;3.53;3.22;;;;;;;29.73;32.75;99148.66;5040676;28;20033;-86
2022/07/07 09:58:52;;;;;;;5.10;3.15;;;;;;;29.84;33.15;99144.06;5050382;28;20036;-86
2022/07/07 10:01:18;;;;;;;5.90;3.35;;;;;;;30.03;32.32;99149.06;5050541;28;20747;-86
2022/07/07 10:03:44;;;;;;;4.82;3.33;;;;;;;30.01;32.45;99149.53;5049822;28;20567;-86
2022/07/07 10:06:10;;;;;;;4.18;3.75;;;;;;;30.37;31.35;99136.47;5048938;28;20124;-87
2022/07/07 10:08:43;;;;;;;3.20;3.00;;;;;;;30.25;31.29;99141.13;5050481;28;20853;-86
2022/07/07 10:11:13;;;;;;;5.43;3.25;;;;;;;30.56;31.04;99139.34;5049753;28;20063;-86
2022/07/07 10:13:43;;;;;;;6.68;3.30;;;;;;;30.57;30.26;99126.53;5050112;28;20108;-86
2022/07/07 10:16:09;;;;;;;6.25;3.38;;;;;;;30.81;30.39;99137.41;5030442;28;20029;-86
2022/07/07 10:18:35;;;;;;;29.77;4.97;;;;;;;30.80;30.39;99135.81;5046760;28;20094;-87
2022/07/07 10:21:02;;;;;;;6.88;3.58;;;;;;;30.55;30.84;99137.75;5048578;28;20056;-86
2022/07/07 10:23:29;;;;;;;4.50;2.85;;;;;;;30.74;31.52;99132.78;5030759;28;20033;-86
2022/07/07 10:26:03;;;;;;;7.95;3.33;;;;;;;30.77;30.99;99145.44;5033326;28;20029;-87
2022/07/07 10:28:55;;;;;;;2.80;2.53;;;;;;;30.61;31.27;99137.91;5041883;28;20475;-87
2022/07/07 10:31:23;;;;;;;5.15;3.05;;;;;;;30.67;31.00;99131.03;5042737;28;20060;-86
2022/07/07 10:34:15;;;;;;;3.22;2.92;;;;;;;30.45;31.16;99118.84;5043732;28;20033;-87
2022/07/07 10:36:50;;;;;;;7.63;2.80;;;;;;;30.32;30.84;99128.47;5049547;28;20495;-87
2022/07/07 10:39:26;;;;;;;3.97;3.20;;;;;;;30.56;30.37;99116.28;5047964;28;20120;-88
2022/07/07 10:42:03;;;;;;;5.45;2.67;;;;;;;30.83;30.69;99134.84;5050385;28;20029;-86
2022/07/07 10:44:31;;;;;;;3.42;2.85;;;;;;;30.99;28.89;99121.34;5047104;28;20032;-87
2022/07/07 10:47:24;;;;;;;4.55;3.00;;;;;;;30.78;30.41;99121.09;5047963;28;20053;-87
2022/07/07 10:49:52;;;;;;;4.93;2.80;;;;;;;30.23;30.59;99105.38;5045351;28;20025;-87
2022/07/07 10:52:38;;;;;;;2.92;2.47;;;;;;;30.17;30.53;99113.88;5052966;28;20060;-87
2022/07/07 10:55:04;;;;;;;8.40;2.88;;;;;;;30.85;30.21;99125.72;5050079;28;20021;-87
2022/07/07 10:57:41;;;;;;;3.20;2.78;;;;;;;30.75;29.70;99122.03;5049304;28;20040;-87
2022/07/07 11:00:09;;;;;;;3.38;3.08;;;;;;;30.59;29.72;99117.38;5050974;28;20079;-88
2022/07/07 11:02:41;;;;;;;4.00;3.25;;;;;;;30.60;29.71;99113.22;5049467;28;20033;-85
2022/07/07 11:05:09;;;;;;;8.38;2.97;;;;;;;30.68;29.35;99118.19;5050968;28;20037;-86
2022/07/07 11:07:35;;;;;;;3.50;2.95;;;;;;;30.96;29.10;99108.69;5061192;28;20024;-87
2022/07/07 11:10:09;;;;;;;6.40;3.20;;;;;;;30.98;29.67;99116.84;5068962;28;20452;-86
2022/07/07 11:12:37;;;;;;;4.60;3.22;;;;;;;31.16;29.18;99116.81;5052472;28;20464;-86
2022/07/07 11:15:17;;;;;;;4.13;2.63;;;;;;;31.62;28.80;99115.81;5054826;28;20076;-85
2022/07/07 11:17:53;;;;;;;3.83;3.28;;;;;;;31.37;28.31;99117.84;5043716;28;20040;-86
2022/07/07 11:20:21;;;;;;;7.82;3.33;;;;;;;30.98;29.85;99093.75;5049557;28;20033;-86
2022/07/07 11:22:49;;;;;;;3.22;2.50;;;;;;;31.55;29.63;99106.69;5050986;28;20025;-86
2022/07/07 11:25:18;;;;;;;6.82;3.85;;;;;;;31.61;28.54;99090.28;5045781;28;20499;-86
2022/07/07 11:27:44;;;;;;;3.10;2.90;;;;;;;31.65;28.38;99099.59;5039890;28;20032;-86
2022/07/07 11:30:10;;;;;;;6.05;2.88;;;;;;;31.84;28.52;99102.38;5049700;28;20047;-87
2022/07/07 11:32:41;;;;;;;3.47;2.47;;;;;;;31.19;28.96;99110.03;5049712;28;20037;-85
2022/07/07 11:35:08;;;;;;;3.22;2.60;;;;;;;31.28;28.89;99105.56;5048745;28;20068;-85